sensor_id;sensor_type;location;lat;lon;timestamp;pressure;altitude;pressure_sealevel;temperature;humidity
12475;BME280;6302;42.624;23.334;2023-02-22T00:01:41;93248.69;;;9.75;53.90
12475;BME280;6302;42.624;23.334;2023-02-22T00:04:15;93249.91;;;9.67;54.62
12475;BME280;6302;42.624;23.334;2023-02-22T00:06:46;93245.03;;;9.59;54.84
12475;BME280;6302;42.624;23.334;2023-02-22T00:09:13;93254.84;;;9.58;53.97
12475;BME280;6302;42.624;23.334;2023-02-22T00:11:47;93257.88;;;9.53;54.32
12475;BME280;6302;42.624;23.334;2023-02-22T00:14:14;93257.94;;;9.46;54.42
12475;BME280;6302;42.624;23.334;2023-02-22T00:16:44;93252.28;;;9.44;54.98
12475;BME280;6302;42.624;23.334;2023-02-22T00:19:11;93250.03;;;9.39;55.42
12475;BME280;6302;42.624;23.334;2023-02-22T00:21:38;93257.22;;;9.35;56.21
12475;BME280;6302;42.624;23.334;2023-02-22T00:24:04;93265.56;;;9.27;56.76
12475;BME280;6302;42.624;23.334;2023-02-22T00:26:49;93262.56;;;9.21;56.51
12475;BME280;6302;42.624;23.334;2023-02-22T00:29:16;93262.56;;;9.18;56.83
12475;BME280;6302;42.624;23.334;2023-02-22T00:31:43;93259.19;;;9.17;57.30
12475;BME280;6302;42.624;23.334;2023-02-22T00:34:09;93255.41;;;9.11;56.83
12475;BME280;6302;42.624;23.334;2023-02-22T00:36:36;93251.28;;;9.10;56.43
12475;BME280;6302;42.624;23.334;2023-02-22T00:39:03;93250.53;;;9.06;56.56
12475;BME280;6302;42.624;23.334;2023-02-22T00:41:31;93249.41;;;9.03;57.60
12475;BME280;6302;42.624;23.334;2023-02-22T00:44:00;93239.97;;;8.99;56.71
12475;BME280;6302;42.624;23.334;2023-02-22T00:46:26;93246.03;;;8.96;57.57
12475;BME280;6302;42.624;23.334;2023-02-22T00:48:53;93234.69;;;8.92;57.45
12475;BME280;6302;42.624;23.334;2023-02-22T00:51:20;93230.19;;;8.89;57.54
12475;BME280;6302;42.624;23.334;2023-02-22T00:53:47;93236.25;;;8.86;57.41
12475;BME280;6302;42.624;23.334;2023-02-22T00:56:13;93242.28;;;8.83;57.95
12475;BME280;6302;42.624;23.334;2023-02-22T00:58:41;93235.47;;;8.89;55.50
12475;BME280;6302;42.624;23.334;2023-02-22T01:01:10;93232.06;;;8.92;56.25
12475;BME280;6302;42.624;23.334;2023-02-22T01:03:37;93232.06;;;8.92;56.86
12475;BME280;6302;42.624;23.334;2023-02-22T01:06:06;93225.25;;;8.98;55.51
12475;BME280;6302;42.624;23.334;2023-02-22T01:08:32;93232.44;;;9.01;54.77
12475;BME280;6302;42.624;23.334;2023-02-22T01:10:59;93219.56;;;9.06;53.98
12475;BME280;6302;42.624;23.334;2023-02-22T01:13:26;93224.47;;;9.08;54.82
12475;BME280;6302;42.624;23.334;2023-02-22T01:15:53;93216.91;;;9.06;54.98
12475;BME280;6302;42.624;23.334;2023-02-22T01:18:22;93218.81;;;8.99;55.80
12475;BME280;6302;42.624;23.334;2023-02-22T01:20:50;93214.69;;;8.98;56.12
12475;BME280;6302;42.624;23.334;2023-02-22T01:23:18;93211.28;;;8.94;56.54
12475;BME280;6302;42.624;23.334;2023-02-22T01:25:45;93212.03;;;8.94;56.65
12475;BME280;6302;42.624;23.334;2023-02-22T01:28:12;93207.50;;;8.91;56.50
12475;BME280;6302;42.624;23.334;2023-02-22T01:30:39;93212.06;;;8.91;56.65
12475;BME280;6302;42.624;23.334;2023-02-22T01:33:07;93209.78;;;8.89;56.92
12475;BME280;6302;42.624;23.334;2023-02-22T01:35:36;93198.84;;;8.87;56.88
12475;BME280;6302;42.624;23.334;2023-02-22T01:38:05;93198.09;;;8.87;57.48
12475;BME280;6302;42.624;23.334;2023-02-22T01:40:34;93187.19;;;8.81;56.92
12475;BME280;6302;42.624;23.334;2023-02-22T01:43:04;93197.72;;;8.85;57.51
12475;BME280;6302;42.624;23.334;2023-02-22T01:45:44;93192.81;;;8.87;57.51
12475;BME280;6302;42.624;23.334;2023-02-22T01:48:16;93202.25;;;8.88;57.85
12475;BME280;6302;42.624;23.334;2023-02-22T01:50:48;93191.69;;;8.84;57.61
12475;BME280;6302;42.624;23.334;2023-02-22T01:53:22;93199.59;;;8.91;57.64
12475;BME280;6302;42.624;23.334;2023-02-22T01:55:52;93201.88;;;8.89;57.71
12475;BME280;6302;42.624;23.334;2023-02-22T01:58:21;93205.66;;;8.88;58.12
12475;BME280;6302;42.624;23.334;2023-02-22T02:00:50;93213.19;;;8.90;58.10
12475;BME280;6302;42.624;23.334;2023-02-22T02:03:21;93210.19;;;8.88;58.17
12475;BME280;6302;42.624;23.334;2023-02-22T02:05:55;93205.25;;;8.90;58.49
12475;BME280;6302;42.624;23.334;2023-02-22T02:08:29;93199.59;;;8.91;58.62
12475;BME280;6302;42.624;23.334;2023-02-22T02:10:58;93200.75;;;8.90;58.02
12475;BME280;6302;42.624;23.334;2023-02-22T02:13:26;93195.47;;;8.90;58.84
12475;BME280;6302;42.624;23.334;2023-02-22T02:15:54;93191.66;;;8.91;59.00
12475;BME280;6302;42.624;23.334;2023-02-22T02:18:23;93192.41;;;8.92;58.53
12475;BME280;6302;42.624;23.334;2023-02-22T02:21:24;93195.06;;;8.92;58.59
12475;BME280;6302;42.624;23.334;2023-02-22T02:24:17;93199.22;;;8.89;58.35
12475;BME280;6302;42.624;23.334;2023-02-22T02:27:10;93202.22;;;8.95;57.88
12475;BME280;6302;42.624;23.334;2023-02-22T02:32:52;93213.16;;;8.97;57.32
12475;BME280;6302;42.624;23.334;2023-02-22T02:35:36;93219.97;;;8.98;57.39
12475;BME280;6302;42.624;23.334;2023-02-22T02:38:10;93221.84;;;9.01;56.79
12475;BME280;6302;42.624;23.334;2023-02-22T02:40:44;93214.31;;;8.92;56.83
12475;BME280;6302;42.624;23.334;2023-02-22T02:43:18;93217.34;;;8.91;57.89
12475;BME280;6302;42.624;23.334;2023-02-22T02:45:50;93222.28;;;8.82;58.12
12475;BME280;6302;42.624;23.334;2023-02-22T02:48:24;93230.22;;;8.78;59.52
12475;BME280;6302;42.624;23.334;2023-02-22T02:50:55;93227.22;;;8.73;59.57
12475;BME280;6302;42.624;23.334;2023-02-22T02:53:26;93222.31;;;8.64;60.13
12475;BME280;6302;42.624;23.334;2023-02-22T02:55:57;93219.69;;;8.61;60.40
12475;BME280;6302;42.624;23.334;2023-02-22T02:58:25;93224.22;;;8.57;61.44
12475;BME280;6302;42.624;23.334;2023-02-22T03:00:55;93223.50;;;8.49;61.82
12475;BME280;6302;42.624;23.334;2023-02-22T03:04:10;93231.78;;;8.40;62.25
12475;BME280;6302;42.624;23.334;2023-02-22T03:07:02;93230.28;;;8.32;63.18
12475;BME280;6302;42.624;23.334;2023-02-22T03:09:53;93225.34;;;8.20;64.41
12475;BME280;6302;42.624;23.334;2023-02-22T03:12:31;93222.72;;;8.13;65.50
12475;BME280;6302;42.624;23.334;2023-02-22T03:15:07;93221.97;;;8.02;65.90
12475;BME280;6302;42.624;23.334;2023-02-22T03:17:44;93227.63;;;7.97;65.99
12475;BME280;6302;42.624;23.334;2023-02-22T03:20:21;93226.47;;;7.91;67.14
12475;BME280;6302;42.624;23.334;2023-02-22T03:22:59;93223.47;;;7.82;66.84
12475;BME280;6302;42.624;23.334;2023-02-22T03:25:32;93194.03;;;7.59;66.74
12475;BME280;6302;42.624;23.334;2023-02-22T03:28:02;93232.84;;;7.76;67.21
12475;BME280;6302;42.624;23.334;2023-02-22T03:30:33;93223.06;;;7.69;68.25
12475;BME280;6302;42.624;23.334;2023-02-22T03:33:05;93223.03;;;7.66;68.36
12475;BME280;6302;42.624;23.334;2023-02-22T03:35:38;93220.78;;;7.64;68.91
12475;BME280;6302;42.624;23.334;2023-02-22T03:38:09;93224.16;;;7.61;69.47
12475;BME280;6302;42.624;23.334;2023-02-22T03:40:40;93214.75;;;7.57;70.31
12475;BME280;6302;42.624;23.334;2023-02-22T03:43:13;93224.16;;;7.61;70.39
12475;BME280;6302;42.624;23.334;2023-02-22T03:45:43;93232.47;;;7.67;70.46
12475;BME280;6302;42.624;23.334;2023-02-22T03:48:25;93227.56;;;7.69;69.99
12475;BME280;6302;42.624;23.334;2023-02-22T03:50:58;93215.91;;;7.66;70.53
12475;BME280;6302;42.624;23.334;2023-02-22T03:53:29;93223.06;;;7.73;70.62
12475;BME280;6302;42.624;23.334;2023-02-22T03:55:58;93224.19;;;7.75;70.51
12475;BME280;6302;42.624;23.334;2023-02-22T03:58:30;93225.31;;;7.78;71.25
12475;BME280;6302;42.624;23.334;2023-02-22T04:00:57;93230.22;;;7.83;70.37
12475;BME280;6302;42.624;23.334;2023-02-22T04:03:24;93229.09;;;7.87;69.95
12475;BME280;6302;42.624;23.334;2023-02-22T04:05:51;93226.47;;;7.91;70.48
12475;BME280;6302;42.624;23.334;2023-02-22T04:08:20;93223.84;;;7.91;70.57
12475;BME280;6302;42.624;23.334;2023-02-22T04:10:46;93218.94;;;7.90;71.07
12475;BME280;6302;42.624;23.334;2023-02-22T04:13:13;93219.72;;;7.97;68.19
12475;BME280;6302;42.624;23.334;2023-02-22T04:15:41;93203.88;;;7.97;68.96
12475;BME280;6302;42.624;23.334;2023-02-22T04:18:07;93220.81;;;8.10;68.63
12475;BME280;6302;42.624;23.334;2023-02-22T04:20:34;93206.88;;;8.06;68.70
12475;BME280;6302;42.624;23.334;2023-02-22T04:23:01;93222.72;;;8.06;69.06
12475;BME280;6302;42.624;23.334;2023-02-22T04:25:29;93217.44;;;8.06;68.98
12475;BME280;6302;42.624;23.334;2023-02-22T04:27:56;93220.44;;;8.08;69.68
12475;BME280;6302;42.624;23.334;2023-02-22T04:30:23;93220.47;;;8.05;69.80
12475;BME280;6302;42.624;23.334;2023-02-22T04:32:50;93218.19;;;8.03;69.44
12475;BME280;6302;42.624;23.334;2023-02-22T04:35:16;93219.34;;;8.09;68.63
12475;BME280;6302;42.624;23.334;2023-02-22T04:37:44;93228.75;;;8.14;68.72
12475;BME280;6302;42.624;23.334;2023-02-22T04:40:12;93215.19;;;8.12;68.61
12475;BME280;6302;42.624;23.334;2023-02-22T04:42:40;93230.25;;;8.11;68.91
12475;BME280;6302;42.624;23.334;2023-02-22T04:45:08;93228.38;;;8.08;68.58
12475;BME280;6302;42.624;23.334;2023-02-22T04:47:35;93229.53;;;8.07;68.36
12475;BME280;6302;42.624;23.334;2023-02-22T04:50:03;93231.38;;;8.10;68.73
12475;BME280;6302;42.624;23.334;2023-02-22T04:52:29;93228.75;;;8.10;69.24
12475;BME280;6302;42.624;23.334;2023-02-22T04:54:56;93227.25;;;8.06;69.92
12475;BME280;6302;42.624;23.334;2023-02-22T04:57:24;93209.13;;;7.90;70.12
12475;BME280;6302;42.624;23.334;2023-02-22T04:59:52;93223.47;;;7.96;71.24
12475;BME280;6302;42.624;23.334;2023-02-22T05:02:19;93224.59;;;7.92;71.31
12475;BME280;6302;42.624;23.334;2023-02-22T05:04:46;93226.47;;;7.87;71.75
12475;BME280;6302;42.624;23.334;2023-02-22T05:07:13;93221.19;;;7.84;71.83
12475;BME280;6302;42.624;23.334;2023-02-22T05:09:40;93229.47;;;7.79;72.90
12475;BME280;6302;42.624;23.334;2023-02-22T05:12:07;93219.66;;;7.76;72.83
12475;BME280;6302;42.624;23.334;2023-02-22T05:14:34;93224.56;;;7.70;72.65
12475;BME280;6302;42.624;23.334;2023-02-22T05:17:02;93224.56;;;7.67;73.03
12475;BME280;6302;42.624;23.334;2023-02-22T05:19:29;93221.94;;;7.67;72.98
12475;BME280;6302;42.624;23.334;2023-02-22T05:21:56;93226.06;;;7.68;73.13
12475;BME280;6302;42.624;23.334;2023-02-22T05:24:26;93227.97;;;7.67;74.22
12475;BME280;6302;42.624;23.334;2023-02-22T05:26:53;93231.72;;;7.66;74.29
12475;BME280;6302;42.624;23.334;2023-02-22T05:29:19;93226.44;;;7.63;74.60
12475;BME280;6302;42.624;23.334;2023-02-22T05:31:46;93240.75;;;7.69;75.02
12475;BME280;6302;42.624;23.334;2023-02-22T05:34:15;93238.13;;;7.69;74.40
12475;BME280;6302;42.624;23.334;2023-02-22T05:36:42;93251.34;;;7.83;73.65
12475;BME280;6302;42.624;23.334;2023-02-22T05:39:08;93251.75;;;7.85;73.47
12475;BME280;6302;42.624;23.334;2023-02-22T05:41:35;93251.34;;;7.90;76.05
12475;BME280;6302;42.624;23.334;2023-02-22T05:44:02;93257.75;;;7.89;75.90
12475;BME280;6302;42.624;23.334;2023-02-22T05:46:29;93255.13;;;7.89;74.71
12475;BME280;6302;42.624;23.334;2023-02-22T05:48:56;93265.69;;;7.89;75.47
12475;BME280;6302;42.624;23.334;2023-02-22T05:51:24;93264.16;;;7.95;73.98
12475;BME280;6302;42.624;23.334;2023-02-22T05:53:51;93262.69;;;8.01;74.15
12475;BME280;6302;42.624;23.334;2023-02-22T05:56:22;93255.16;;;8.00;75.13
12475;BME280;6302;42.624;23.334;2023-02-22T05:58:49;93265.31;;;8.01;74.55
12475;BME280;6302;42.624;23.334;2023-02-22T06:01:16;93271.75;;;8.07;74.12
12475;BME280;6302;42.624;23.334;2023-02-22T06:03:45;93264.56;;;8.04;73.64
12475;BME280;6302;42.624;23.334;2023-02-22T06:06:14;93273.25;;;8.12;74.26
12475;BME280;6302;42.624;23.334;2023-02-22T06:08:43;93274.75;;;8.09;74.99
12475;BME280;6302;42.624;23.334;2023-02-22T06:11:10;93245.31;;;7.93;74.62
12475;BME280;6302;42.624;23.334;2023-02-22T06:13:38;93276.63;;;8.12;75.85
12475;BME280;6302;42.624;23.334;2023-02-22T06:16:05;93279.28;;;8.09;76.22
12475;BME280;6302;42.624;23.334;2023-02-22T06:18:32;93281.16;;;8.05;76.04
12475;BME280;6302;42.624;23.334;2023-02-22T06:21:00;93283.81;;;8.05;76.74
12475;BME280;6302;42.624;23.334;2023-02-22T06:23:27;93275.88;;;8.08;75.87
12475;BME280;6302;42.624;23.334;2023-02-22T06:25:55;93271.34;;;8.12;76.51
12475;BME280;6302;42.624;23.334;2023-02-22T06:28:22;93279.28;;;8.19;75.95
12475;BME280;6302;42.624;23.334;2023-02-22T06:30:50;93278.16;;;8.24;76.75
12475;BME280;6302;42.624;23.334;2023-02-22T06:33:17;93277.78;;;8.32;76.53
12475;BME280;6302;42.624;23.334;2023-02-22T06:35:44;93277.41;;;8.37;76.86
12475;BME280;6302;42.624;23.334;2023-02-22T06:38:11;93275.91;;;8.43;77.46
12475;BME280;6302;42.624;23.334;2023-02-22T06:40:38;93274.03;;;8.51;78.05
12475;BME280;6302;42.624;23.334;2023-02-22T06:43:06;93270.97;;;8.67;78.04
12475;BME280;6302;42.624;23.334;2023-02-22T06:45:33;93263.44;;;8.76;76.40
12475;BME280;6302;42.624;23.334;2023-02-22T06:47:59;93273.97;;;8.97;75.88
12475;BME280;6302;42.624;23.334;2023-02-22T06:50:27;93264.44;;;9.24;73.92
12475;BME280;6302;42.624;23.334;2023-02-22T06:52:55;93264.69;;;9.54;72.64
12475;BME280;6302;42.624;23.334;2023-02-22T06:55:24;93267.22;;;9.79;72.32
12475;BME280;6302;42.624;23.334;2023-02-22T06:57:51;93272.91;;;9.70;71.30
12475;BME280;6302;42.624;23.334;2023-02-22T07:00:21;93264.69;;;9.58;73.09
12475;BME280;6302;42.624;23.334;2023-02-22T07:02:49;93273.44;;;9.41;72.44
12475;BME280;6302;42.624;23.334;2023-02-22T07:05:17;93283.00;;;9.10;70.16
12475;BME280;6302;42.624;23.334;2023-02-22T07:07:45;93289.06;;;8.89;69.94
12475;BME280;6302;42.624;23.334;2023-02-22T07:10:16;93289.09;;;8.79;69.02
12475;BME280;6302;42.624;23.334;2023-02-22T07:12:44;93285.34;;;8.66;69.04
12475;BME280;6302;42.624;23.334;2023-02-22T07:15:10;93292.88;;;8.67;68.75
12475;BME280;6302;42.624;23.334;2023-02-22T07:17:39;93292.13;;;8.60;69.64
12475;BME280;6302;42.624;23.334;2023-02-22T07:20:07;93293.25;;;8.66;70.23
12475;BME280;6302;42.624;23.334;2023-02-22T07:22:35;93289.47;;;8.77;69.87
12475;BME280;6302;42.624;23.334;2023-02-22T07:25:03;93279.63;;;8.92;69.67
12475;BME280;6302;42.624;23.334;2023-02-22T07:27:29;93285.66;;;9.03;70.21
12475;BME280;6302;42.624;23.334;2023-02-22T07:29:56;93294.66;;;9.27;69.62
12475;BME280;6302;42.624;23.334;2023-02-22T07:32:23;93289.72;;;9.32;68.76
12475;BME280;6302;42.624;23.334;2023-02-22T07:34:51;93295.78;;;9.29;68.30
12475;BME280;6302;42.624;23.334;2023-02-22T07:37:18;93295.78;;;9.29;69.16
12475;BME280;6302;42.624;23.334;2023-02-22T07:39:46;93292.34;;;9.36;68.16
12475;BME280;6302;42.624;23.334;2023-02-22T07:42:13;93293.53;;;9.24;69.25
12475;BME280;6302;42.624;23.334;2023-02-22T07:44:40;93294.97;;;9.36;68.72
12475;BME280;6302;42.624;23.334;2023-02-22T07:47:06;93284.41;;;9.43;68.08
12475;BME280;6302;42.624;23.334;2023-02-22T07:49:37;93291.19;;;9.47;67.83
12475;BME280;6302;42.624;23.334;2023-02-22T07:52:05;93283.97;;;9.51;68.05
12475;BME280;6302;42.624;23.334;2023-02-22T07:54:32;93282.03;;;9.66;68.47
12475;BME280;6302;42.624;23.334;2023-02-22T07:59:34;93269.00;;;10.00;65.84
12475;BME280;6302;42.624;23.334;2023-02-22T08:02:00;93266.31;;;10.07;65.72
12475;BME280;6302;42.624;23.334;2023-02-22T08:04:27;93272.69;;;10.16;65.92
12475;BME280;6302;42.624;23.334;2023-02-22T08:06:54;93267.16;;;10.44;63.98
12475;BME280;6302;42.624;23.334;2023-02-22T08:09:22;93266.72;;;10.53;63.40
12475;BME280;6302;42.624;23.334;2023-02-22T08:11:49;93269.78;;;10.52;63.60
12475;BME280;6302;42.624;23.334;2023-02-22T08:14:16;93272.38;;;10.59;63.16
12475;BME280;6302;42.624;23.334;2023-02-22T08:16:42;93268.84;;;10.72;62.87
12475;BME280;6302;42.624;23.334;2023-02-22T08:19:09;93267.56;;;10.87;61.26
12475;BME280;6302;42.624;23.334;2023-02-22T08:21:36;93271.31;;;10.93;61.33
12475;BME280;6302;42.624;23.334;2023-02-22T08:24:03;93271.84;;;11.11;60.39
12475;BME280;6302;42.624;23.334;2023-02-22T08:26:32;93266.59;;;11.08;59.90
12475;BME280;6302;42.624;23.334;2023-02-22T08:28:58;93276.38;;;11.15;59.60
12475;BME280;6302;42.624;23.334;2023-02-22T08:31:25;93270.25;;;11.21;59.77
12475;BME280;6302;42.624;23.334;2023-02-22T08:33:52;93269.78;;;11.30;59.33
12475;BME280;6302;42.624;23.334;2023-02-22T08:36:19;93273.88;;;11.38;58.73
12475;BME280;6302;42.624;23.334;2023-02-22T08:38:45;93262.41;;;11.44;57.60
12475;BME280;6302;42.624;23.334;2023-02-22T08:41:12;93267.16;;;11.60;58.44
12475;BME280;6302;42.624;23.334;2023-02-22T08:43:40;93274.09;;;11.81;56.78
12475;BME280;6302;42.624;23.334;2023-02-22T08:46:07;93271.41;;;11.84;56.24
12475;BME280;6302;42.624;23.334;2023-02-22T08:48:34;93270.19;;;11.92;55.87
12475;BME280;6302;42.624;23.334;2023-02-22T08:51:01;93272.00;;;11.95;55.43
12475;BME280;6302;42.624;23.334;2023-02-22T08:53:27;93263.06;;;12.12;56.45
12475;BME280;6302;42.624;23.334;2023-02-22T08:55:54;93265.88;;;12.28;55.34
12475;BME280;6302;42.624;23.334;2023-02-22T08:58:21;93273.56;;;12.46;54.74
12475;BME280;6302;42.624;23.334;2023-02-22T09:00:49;93257.22;;;12.48;55.16
12475;BME280;6302;42.624;23.334;2023-02-22T09:03:16;93265.31;;;12.64;53.42
12475;BME280;6302;42.624;23.334;2023-02-22T09:05:43;93256.94;;;12.65;54.22
12475;BME280;6302;42.624;23.334;2023-02-22T09:08:10;93258.06;;;12.87;52.60
12475;BME280;6302;42.624;23.334;2023-02-22T09:10:37;93257.78;;;13.05;50.96
12475;BME280;6302;42.624;23.334;2023-02-22T09:13:05;93256.44;;;13.17;51.37
12475;BME280;6302;42.624;23.334;2023-02-22T09:15:32;93261.63;;;13.43;49.90
12475;BME280;6302;42.624;23.334;2023-02-22T09:18:03;93263.28;;;13.57;48.75
12475;BME280;6302;42.624;23.334;2023-02-22T09:20:30;93252.06;;;13.65;48.19
12475;BME280;6302;42.624;23.334;2023-02-22T09:22:56;93257.28;;;13.73;48.02
12475;BME280;6302;42.624;23.334;2023-02-22T09:25:23;93250.38;;;13.75;47.20
12475;BME280;6302;42.624;23.334;2023-02-22T09:27:53;93251.25;;;13.68;47.33
12475;BME280;6302;42.624;23.334;2023-02-22T09:30:23;93250.94;;;13.83;47.34
12475;BME280;6302;42.624;23.334;2023-02-22T09:32:51;93236.63;;;13.77;45.83
12475;BME280;6302;42.624;23.334;2023-02-22T09:35:21;93244.50;;;14.00;45.28
12475;BME280;6302;42.624;23.334;2023-02-22T09:37:52;93250.66;;;13.97;45.59
12475;BME280;6302;42.624;23.334;2023-02-22T09:40:19;93247.56;;;13.98;46.41
12475;BME280;6302;42.624;23.334;2023-02-22T09:46:07;93241.34;;;14.05;46.42
12475;BME280;6302;42.624;23.334;2023-02-22T09:48:47;93237.25;;;14.00;46.58
12475;BME280;6302;42.624;23.334;2023-02-22T09:51:19;93230.63;;;14.24;47.06
12475;BME280;6302;42.624;23.334;2023-02-22T09:53:55;93229.56;;;14.38;43.30
12475;BME280;6302;42.624;23.334;2023-02-22T09:56:23;93239.81;;;14.40;44.64
12475;BME280;6302;42.624;23.334;2023-02-22T09:58:55;93235.22;;;14.40;44.38
12475;BME280;6302;42.624;23.334;2023-02-22T10:01:26;93235.00;;;14.51;44.25
12475;BME280;6302;42.624;23.334;2023-02-22T10:04:00;93227.91;;;14.60;44.84
12475;BME280;6302;42.624;23.334;2023-02-22T10:06:32;93225.41;;;14.53;45.20
12475;BME280;6302;42.624;23.334;2023-02-22T10:09:02;93223.69;;;14.47;44.85
12475;BME280;6302;42.624;23.334;2023-02-22T10:11:43;93211.91;;;14.60;44.20
12475;BME280;6302;42.624;23.334;2023-02-22T10:14:34;93212.72;;;14.73;44.30
12475;BME280;6302;42.624;23.334;2023-02-22T10:17:12;93200.09;;;14.90;44.63
12475;BME280;6302;42.624;23.334;2023-02-22T10:19:49;93203.78;;;15.09;44.06
12475;BME280;6302;42.624;23.334;2023-02-22T10:22:34;93200.03;;;14.93;43.00
12475;BME280;6302;42.624;23.334;2023-02-22T10:25:04;93198.44;;;14.96;44.03
12475;BME280;6302;42.624;23.334;2023-02-22T10:27:36;93194.53;;;15.13;44.22
12475;BME280;6302;42.624;23.334;2023-02-22T10:30:07;93188.66;;;15.06;44.49
12475;BME280;6302;42.624;23.334;2023-02-22T10:32:43;93182.97;;;15.04;43.11
12475;BME280;6302;42.624;23.334;2023-02-22T10:35:20;93183.31;;;15.06;43.45
12475;BME280;6302;42.624;23.334;2023-02-22T10:37:51;93177.78;;;15.13;43.79
12475;BME280;6302;42.624;23.334;2023-02-22T10:40:21;93168.31;;;15.37;43.91
12475;BME280;6302;42.624;23.334;2023-02-22T10:42:57;93165.28;;;15.51;44.17
12475;BME280;6302;42.624;23.334;2023-02-22T10:45:28;93162.91;;;15.53;43.35
12475;BME280;6302;42.624;23.334;2023-02-22T10:47:57;93160.41;;;15.33;43.05
12475;BME280;6302;42.624;23.334;2023-02-22T10:50:28;93154.47;;;15.42;43.65
12475;BME280;6302;42.624;23.334;2023-02-22T10:52:57;93148.63;;;15.47;42.64
12475;BME280;6302;42.624;23.334;2023-02-22T10:55:24;93157.69;;;15.49;41.22
12475;BME280;6302;42.624;23.334;2023-02-22T10:57:59;93150.97;;;15.45;40.16
12475;BME280;6302;42.624;23.334;2023-02-22T11:00:30;93141.69;;;15.49;40.06
12475;BME280;6302;42.624;23.334;2023-02-22T11:02:58;93138.03;;;15.56;40.77
12475;BME280;6302;42.624;23.334;2023-02-22T11:05:29;93147.13;;;15.71;40.62
12475;BME280;6302;42.624;23.334;2023-02-22T11:08:21;93145.97;;;15.85;41.62
12475;BME280;6302;42.624;23.334;2023-02-22T11:10:50;93138.59;;;15.89;40.10
12475;BME280;6302;42.624;23.334;2023-02-22T11:13:23;93136.91;;;15.82;40.31
12475;BME280;6302;42.624;23.334;2023-02-22T11:15:54;93136.91;;;15.82;38.90
12475;BME280;6302;42.624;23.334;2023-02-22T11:18:24;93131.31;;;15.89;39.43
12475;BME280;6302;42.624;23.334;2023-02-22T11:21:13;93135.38;;;16.06;39.44
12475;BME280;6302;42.624;23.334;2023-02-22T11:23:48;93129.56;;;16.20;38.95
12475;BME280;6302;42.624;23.334;2023-02-22T11:26:17;93125.91;;;16.27;38.67
12475;BME280;6302;42.624;23.334;2023-02-22T11:28:47;93125.03;;;16.43;38.36
12475;BME280;6302;42.624;23.334;2023-02-22T11:31:17;93121.75;;;16.39;38.60
12475;BME280;6302;42.624;23.334;2023-02-22T11:33:50;93117.88;;;16.52;37.55
12475;BME280;6302;42.624;23.334;2023-02-22T11:36:33;93123.22;;;16.52;36.64
12475;BME280;6302;42.624;23.334;2023-02-22T11:39:04;93108.53;;;16.57;36.79
12475;BME280;6302;42.624;23.334;2023-02-22T11:41:35;93101.00;;;16.30;37.46
12475;BME280;6302;42.624;23.334;2023-02-22T11:44:19;93102.06;;;16.33;37.87
12475;BME280;6302;42.624;23.334;2023-02-22T11:46:46;93102.34;;;16.47;38.44
12475;BME280;6302;42.624;23.334;2023-02-22T11:49:14;93106.44;;;16.39;37.75
12475;BME280;6302;42.624;23.334;2023-02-22T11:51:52;93109.00;;;16.43;38.08
12475;BME280;6302;42.624;23.334;2023-02-22T11:54:45;93096.22;;;16.59;38.08
12475;BME280;6302;42.624;23.334;2023-02-22T11:57:25;93094.81;;;16.67;38.44
12475;BME280;6302;42.624;23.334;2023-02-22T12:00:11;93092.09;;;16.46;36.90
12475;BME280;6302;42.624;23.334;2023-02-22T12:02:50;93095.38;;;16.50;36.98
12475;BME280;6302;42.624;23.334;2023-02-22T12:05:28;93091.66;;;16.35;36.58
12475;BME280;6302;42.624;23.334;2023-02-22T12:08:15;93089.59;;;16.51;36.59
12475;BME280;6302;42.624;23.334;2023-02-22T12:10:55;93094.00;;;16.58;36.36
12475;BME280;6302;42.624;23.334;2023-02-22T12:13:36;93083.28;;;16.58;36.93
12475;BME280;6302;42.624;23.334;2023-02-22T12:16:14;93085.66;;;16.56;37.27
12475;BME280;6302;42.624;23.334;2023-02-22T12:18:56;93091.00;;;16.56;37.17
12475;BME280;6302;42.624;23.334;2023-02-22T12:21:28;93080.41;;;16.52;37.34
12475;BME280;6302;42.624;23.334;2023-02-22T12:24:00;93080.16;;;16.59;37.16
12475;BME280;6302;42.624;23.334;2023-02-22T12:26:34;93071.53;;;16.77;37.90
12475;BME280;6302;42.624;23.334;2023-02-22T12:29:07;93064.19;;;16.90;37.57
12475;BME280;6302;42.624;23.334;2023-02-22T12:31:42;93072.09;;;17.15;36.23
12475;BME280;6302;42.624;23.334;2023-02-22T12:34:16;93065.72;;;17.22;35.38
12475;BME280;6302;42.624;23.334;2023-02-22T12:36:52;93062.13;;;17.16;35.27
12475;BME280;6302;42.624;23.334;2023-02-22T12:39:32;93058.56;;;17.19;34.89
12475;BME280;6302;42.624;23.334;2023-02-22T12:42:11;93057.69;;;17.22;35.34
12475;BME280;6302;42.624;23.334;2023-02-22T12:44:40;93053.66;;;17.17;34.63
12475;BME280;6302;42.624;23.334;2023-02-22T12:47:14;93050.41;;;17.22;34.71
12475;BME280;6302;42.624;23.334;2023-02-22T12:49:43;93051.00;;;17.26;34.56
12475;BME280;6302;42.624;23.334;2023-02-22T12:52:20;93058.69;;;17.15;34.65
12475;BME280;6302;42.624;23.334;2023-02-22T12:54:57;93052.63;;;16.93;34.75
12475;BME280;6302;42.624;23.334;2023-02-22T12:57:34;93043.09;;;16.92;36.62
12475;BME280;6302;42.624;23.334;2023-02-22T13:00:04;93047.31;;;17.02;35.92
12475;BME280;6302;42.624;23.334;2023-02-22T13:02:38;93050.78;;;17.12;35.96
12475;BME280;6302;42.624;23.334;2023-02-22T13:05:13;93036.66;;;17.11;36.17
12475;BME280;6302;42.624;23.334;2023-02-22T13:07:47;93043.78;;;17.05;35.92
12475;BME280;6302;42.624;23.334;2023-02-22T13:10:31;93045.72;;;16.83;35.78
12475;BME280;6302;42.624;23.334;2023-02-22T13:13:07;93047.19;;;16.84;36.41
12475;BME280;6302;42.624;23.334;2023-02-22T13:15:45;93044.16;;;16.95;36.51
12475;BME280;6302;42.624;23.334;2023-02-22T13:18:19;93048.59;;;16.88;36.36
12475;BME280;6302;42.624;23.334;2023-02-22T13:20:51;93036.50;;;16.84;35.98
12475;BME280;6302;42.624;23.334;2023-02-22T13:23:36;93037.53;;;16.86;36.41
12475;BME280;6302;42.624;23.334;2023-02-22T13:26:09;93035.00;;;16.83;36.11
12475;BME280;6302;42.624;23.334;2023-02-22T13:28:45;93042.25;;;16.73;36.15
12475;BME280;6302;42.624;23.334;2023-02-22T13:31:23;93040.25;;;16.65;36.49
12475;BME280;6302;42.624;23.334;2023-02-22T13:34:05;93042.91;;;16.65;36.27
12475;BME280;6302;42.624;23.334;2023-02-22T13:36:48;93037.88;;;16.67;36.35